sensor_id;sensor_type;location;lat;lon;timestamp;pressure;altitude;pressure_sealevel;temperature;humidity
9225;BME280;4647;48.072;11.616;2023-12-04T00:02:20;95420.81;;;-9.93;85.39
9225;BME280;4647;48.072;11.616;2023-12-04T00:04:48;95420.94;;;-9.79;83.77
9225;BME280;4647;48.072;11.616;2023-12-04T00:07:16;95418.38;;;-9.61;83.73
9225;BME280;4647;48.072;11.616;2023-12-04T00:09:45;95408.75;;;-9.70;83.45
9225;BME280;4647;48.072;11.616;2023-12-04T00:12:13;95414.84;;;-9.51;82.66
9225;BME280;4647;48.072;11.616;2023-12-04T00:14:44;95405.66;;;-9.48;82.40
9225;BME280;4647;48.072;11.616;2023-12-04T00:17:13;95403.03;;;-9.48;82.07
9225;BME280;4647;48.072;11.616;2023-12-04T00:19:41;95403.00;;;-9.43;82.35
9225;BME280;4647;48.072;11.616;2023-12-04T00:22:10;95401.75;;;-9.51;83.09
9225;BME280;4647;48.072;11.616;2023-12-04T00:24:38;95398.41;;;-9.56;82.56
9225;BME280;4647;48.072;11.616;2023-12-04T00:27:07;95397.94;;;-9.87;84.69
9225;BME280;4647;48.072;11.616;2023-12-04T00:29:35;95394.28;;;-9.86;84.13
9225;BME280;4647;48.072;11.616;2023-12-04T00:32:06;95395.16;;;-9.72;84.21
9225;BME280;4647;48.072;11.616;2023-12-04T00:34:35;95391.47;;;-9.71;84.50
9225;BME280;4647;48.072;11.616;2023-12-04T00:37:03;95389.91;;;-9.72;84.35
9225;BME280;4647;48.072;11.616;2023-12-04T00:39:32;95380.97;;;-9.66;83.46
9225;BME280;4647;48.072;11.616;2023-12-04T00:42:00;95386.41;;;-9.63;83.45
9225;BME280;4647;48.072;11.616;2023-12-04T00:44:29;95393.56;;;-9.68;83.67
9225;BME280;4647;48.072;11.616;2023-12-04T00:46:57;95387.56;;;-9.74;84.11
9225;BME280;4647;48.072;11.616;2023-12-04T00:49:28;95381.78;;;-9.71;84.10
9225;BME280;4647;48.072;11.616;2023-12-04T00:51:56;95396.91;;;-9.39;83.28
9225;BME280;4647;48.072;11.616;2023-12-04T00:54:25;95394.38;;;-9.49;83.64
9225;BME280;4647;48.072;11.616;2023-12-04T00:56:53;95385.72;;;-9.68;84.14
9225;BME280;4647;48.072;11.616;2023-12-04T00:59:22;95376.00;;;-9.68;83.85
9225;BME280;4647;48.072;11.616;2023-12-04T01:01:50;95384.81;;;-9.58;83.60
9225;BME280;4647;48.072;11.616;2023-12-04T01:04:18;95372.34;;;-9.48;83.19
9225;BME280;4647;48.072;11.616;2023-12-04T01:06:49;95383.00;;;-9.39;82.57
9225;BME280;4647;48.072;11.616;2023-12-04T01:09:18;95362.63;;;-9.66;82.98
9225;BME280;4647;48.072;11.616;2023-12-04T01:11:49;95363.38;;;-9.42;83.25
9225;BME280;4647;48.072;11.616;2023-12-04T01:14:18;95368.72;;;-9.52;84.00
9225;BME280;4647;48.072;11.616;2023-12-04T01:16:47;95363.94;;;-9.45;83.24
9225;BME280;4647;48.072;11.616;2023-12-04T01:19:15;95359.94;;;-9.18;82.36
9225;BME280;4647;48.072;11.616;2023-12-04T01:21:43;95361.50;;;-9.17;82.22
9225;BME280;4647;48.072;11.616;2023-12-04T01:24:15;95365.56;;;-9.30;82.19
9225;BME280;4647;48.072;11.616;2023-12-04T01:26:43;95371.94;;;-9.36;82.23
9225;BME280;4647;48.072;11.616;2023-12-04T01:29:12;95365.53;;;-9.73;83.64
9225;BME280;4647;48.072;11.616;2023-12-04T01:31:40;95350.00;;;-9.64;83.75
9225;BME280;4647;48.072;11.616;2023-12-04T01:34:09;95356.00;;;-9.40;82.43
9225;BME280;4647;48.072;11.616;2023-12-04T01:36:40;95336.81;;;-9.59;82.53
9225;BME280;4647;48.072;11.616;2023-12-04T01:39:08;95358.94;;;-9.46;82.06
9225;BME280;4647;48.072;11.616;2023-12-04T01:41:39;95355.59;;;-9.52;82.45
9225;BME280;4647;48.072;11.616;2023-12-04T01:44:08;95345.28;;;-9.43;81.88
9225;BME280;4647;48.072;11.616;2023-12-04T01:46:37;95346.22;;;-9.34;81.48
9225;BME280;4647;48.072;11.616;2023-12-04T01:49:05;95337.72;;;-9.45;81.64
9225;BME280;4647;48.072;11.616;2023-12-04T01:51:34;95325.34;;;-9.63;82.19
9225;BME280;4647;48.072;11.616;2023-12-04T01:54:04;95338.25;;;-9.48;81.62
9225;BME280;4647;48.072;11.616;2023-12-04T01:56:34;95330.69;;;-9.73;81.93
9225;BME280;4647;48.072;11.616;2023-12-04T01:59:05;95319.25;;;-9.58;81.84
9225;BME280;4647;48.072;11.616;2023-12-04T02:01:34;95318.31;;;-9.68;81.68
9225;BME280;4647;48.072;11.616;2023-12-04T02:04:04;95307.41;;;-9.56;81.13
9225;BME280;4647;48.072;11.616;2023-12-04T02:06:32;95315.84;;;-9.59;81.41
9225;BME280;4647;48.072;11.616;2023-12-04T02:09:01;95308.16;;;-9.74;81.40
9225;BME280;4647;48.072;11.616;2023-12-04T02:11:32;95296.81;;;-9.88;81.27
9225;BME280;4647;48.072;11.616;2023-12-04T02:14:00;95286.06;;;-9.87;81.69
9225;BME280;4647;48.072;11.616;2023-12-04T02:16:34;95269.53;;;-9.87;81.91
9225;BME280;4647;48.072;11.616;2023-12-04T02:19:07;95267.50;;;-9.91;82.12
9225;BME280;4647;48.072;11.616;2023-12-04T02:21:36;95276.72;;;-9.74;82.15
9225;BME280;4647;48.072;11.616;2023-12-04T02:24:07;95261.44;;;-9.67;81.49
9225;BME280;4647;48.072;11.616;2023-12-04T02:26:40;95265.19;;;-9.97;81.99
9225;BME280;4647;48.072;11.616;2023-12-04T02:29:16;95258.97;;;-10.01;82.22
9225;BME280;4647;48.072;11.616;2023-12-04T02:31:48;95267.00;;;-9.93;81.72
9225;BME280;4647;48.072;11.616;2023-12-04T02:34:20;95262.34;;;-10.01;81.91
9225;BME280;4647;48.072;11.616;2023-12-04T02:36:50;95252.72;;;-10.05;81.97
9225;BME280;4647;48.072;11.616;2023-12-04T02:39:22;95258.69;;;-10.00;82.06
9225;BME280;4647;48.072;11.616;2023-12-04T02:41:51;95261.13;;;-10.08;81.37
9225;BME280;4647;48.072;11.616;2023-12-04T02:44:19;95257.41;;;-10.02;81.61
9225;BME280;4647;48.072;11.616;2023-12-04T02:46:47;95259.16;;;-10.16;82.16
9225;BME280;4647;48.072;11.616;2023-12-04T02:49:16;95253.81;;;-10.30;82.86
9225;BME280;4647;48.072;11.616;2023-12-04T02:51:44;95232.03;;;-10.07;81.96
9225;BME280;4647;48.072;11.616;2023-12-04T02:54:13;95244.66;;;-10.09;82.10
9225;BME280;4647;48.072;11.616;2023-12-04T02:56:44;95250.44;;;-10.12;81.92
9225;BME280;4647;48.072;11.616;2023-12-04T02:59:12;95244.00;;;-10.01;81.54
9225;BME280;4647;48.072;11.616;2023-12-04T03:01:41;95247.53;;;-10.29;82.29
9225;BME280;4647;48.072;11.616;2023-12-04T03:04:09;95238.53;;;-10.23;82.75
9225;BME280;4647;48.072;11.616;2023-12-04T03:06:38;95234.78;;;-10.17;81.65
9225;BME280;4647;48.072;11.616;2023-12-04T03:09:06;95225.34;;;-10.18;81.67
9225;BME280;4647;48.072;11.616;2023-12-04T03:11:35;95221.28;;;-10.05;80.95
9225;BME280;4647;48.072;11.616;2023-12-04T03:14:06;95205.78;;;-10.02;80.42
9225;BME280;4647;48.072;11.616;2023-12-04T03:16:34;95212.50;;;-9.96;80.33
9225;BME280;4647;48.072;11.616;2023-12-04T03:19:03;95203.88;;;-10.15;80.60
9225;BME280;4647;48.072;11.616;2023-12-04T03:21:31;95203.88;;;-10.15;80.60
9225;BME280;4647;48.072;11.616;2023-12-04T03:24:00;95204.63;;;-10.33;81.83
9225;BME280;4647;48.072;11.616;2023-12-04T03:26:28;95200.66;;;-10.31;81.24
9225;BME280;4647;48.072;11.616;2023-12-04T03:28:57;95196.94;;;-10.48;81.07
9225;BME280;4647;48.072;11.616;2023-12-04T03:31:28;95195.81;;;-10.42;80.94
9225;BME280;4647;48.072;11.616;2023-12-04T03:33:57;95189.50;;;-10.41;80.81
9225;BME280;4647;48.072;11.616;2023-12-04T03:36:25;95199.09;;;-10.56;80.64
9225;BME280;4647;48.072;11.616;2023-12-04T03:38:53;95200.38;;;-10.53;80.41
9225;BME280;4647;48.072;11.616;2023-12-04T03:41:22;95204.44;;;-10.66;80.62
9225;BME280;4647;48.072;11.616;2023-12-04T03:43:50;95189.63;;;-10.75;81.21
9225;BME280;4647;48.072;11.616;2023-12-04T03:46:19;95175.75;;;-10.76;81.12
9225;BME280;4647;48.072;11.616;2023-12-04T03:48:50;95179.09;;;-10.70;81.77
9225;BME280;4647;48.072;11.616;2023-12-04T03:51:18;95185.34;;;-10.42;80.32
9225;BME280;4647;48.072;11.616;2023-12-04T03:53:47;95179.16;;;-10.51;80.90
9225;BME280;4647;48.072;11.616;2023-12-04T03:56:15;95181.41;;;-10.40;80.31
9225;BME280;4647;48.072;11.616;2023-12-04T03:58:44;95179.09;;;-10.46;80.55
9225;BME280;4647;48.072;11.616;2023-12-04T04:01:12;95173.69;;;-10.31;80.43
9225;BME280;4647;48.072;11.616;2023-12-04T04:03:40;95169.88;;;-10.39;80.53
9225;BME280;4647;48.072;11.616;2023-12-04T04:06:13;95166.41;;;-10.58;81.64
9225;BME280;4647;48.072;11.616;2023-12-04T04:08:42;95168.34;;;-10.69;82.37
9225;BME280;4647;48.072;11.616;2023-12-04T04:11:10;95166.06;;;-10.75;83.25
9225;BME280;4647;48.072;11.616;2023-12-04T04:13:39;95129.28;;;-10.84;82.89
9225;BME280;4647;48.072;11.616;2023-12-04T04:16:12;95154.88;;;-10.57;81.67
9225;BME280;4647;48.072;11.616;2023-12-04T04:18:40;95160.34;;;-10.54;81.18
9225;BME280;4647;48.072;11.616;2023-12-04T04:21:09;95157.31;;;-10.42;81.15
9225;BME280;4647;48.072;11.616;2023-12-04T04:23:40;95154.44;;;-10.40;80.96
9225;BME280;4647;48.072;11.616;2023-12-04T04:26:08;95162.19;;;-10.54;81.22
9225;BME280;4647;48.072;11.616;2023-12-04T04:28:37;95155.94;;;-10.34;80.03
9225;BME280;4647;48.072;11.616;2023-12-04T04:31:06;95140.97;;;-10.52;79.44
9225;BME280;4647;48.072;11.616;2023-12-04T04:33:34;95146.47;;;-10.54;79.60
9225;BME280;4647;48.072;11.616;2023-12-04T04:36:03;95152.09;;;-10.66;78.98
9225;BME280;4647;48.072;11.616;2023-12-04T04:38:32;63525.28;;;-144.30;100.00
9225;BME280;4647;48.072;11.616;2023-12-04T04:41:03;63525.28;;;-144.30;100.00
9225;BME280;4647;48.072;11.616;2023-12-04T04:43:32;63525.28;;;-144.30;100.00
9225;BME280;4647;48.072;11.616;2023-12-04T04:46:00;63525.28;;;-144.30;100.00
9225;BME280;4647;48.072;11.616;2023-12-04T04:48:29;63525.28;;;-144.30;100.00
9225;BME280;4647;48.072;11.616;2023-12-04T04:50:57;63525.28;;;-144.30;100.00
9225;BME280;4647;48.072;11.616;2023-12-04T04:53:25;95152.09;;;-144.30;78.98
9225;BME280;4647;48.072;11.616;2023-12-04T04:55:54;95146.25;;;-10.58;80.37
9225;BME280;4647;48.072;11.616;2023-12-04T04:58:25;95136.81;;;-10.35;79.58
9225;BME280;4647;48.072;11.616;2023-12-04T05:00:53;95128.13;;;-10.30;79.34
9225;BME280;4647;48.072;11.616;2023-12-04T05:03:22;95130.41;;;-10.47;80.52
9225;BME280;4647;48.072;11.616;2023-12-04T05:05:50;95123.63;;;-10.48;80.60
9225;BME280;4647;48.072;11.616;2023-12-04T05:08:19;95115.88;;;-10.35;80.14
9225;BME280;4647;48.072;11.616;2023-12-04T05:10:47;95123.94;;;-10.31;79.65
9225;BME280;4647;48.072;11.616;2023-12-04T05:13:15;95117.66;;;-10.30;79.27
9225;BME280;4647;48.072;11.616;2023-12-04T05:15:46;95115.34;;;-10.18;79.27
9225;BME280;4647;48.072;11.616;2023-12-04T05:18:15;95112.41;;;-10.30;80.15
9225;BME280;4647;48.072;11.616;2023-12-04T05:20:43;95076.94;;;-10.60;80.87
9225;BME280;4647;48.072;11.616;2023-12-04T05:23:12;95103.69;;;-10.44;80.74
9225;BME280;4647;48.072;11.616;2023-12-04T05:25:40;95100.16;;;-10.16;79.84
9225;BME280;4647;48.072;11.616;2023-12-04T05:28:09;95107.81;;;-10.38;79.22
9225;BME280;4647;48.072;11.616;2023-12-04T05:30:37;95108.31;;;-10.36;79.36
9225;BME280;4647;48.072;11.616;2023-12-04T05:33:08;95086.63;;;-10.61;79.91
9225;BME280;4647;48.072;11.616;2023-12-04T05:35:37;95094.34;;;-10.50;80.70
9225;BME280;4647;48.072;11.616;2023-12-04T05:38:05;95097.25;;;-10.33;80.54
9225;BME280;4647;48.072;11.616;2023-12-04T05:40:34;95088.91;;;-10.35;80.17
9225;BME280;4647;48.072;11.616;2023-12-04T05:43:02;95085.59;;;-10.41;80.53
9225;BME280;4647;48.072;11.616;2023-12-04T05:45:31;95094.28;;;-10.27;80.24
9225;BME280;4647;48.072;11.616;2023-12-04T05:47:59;95092.56;;;-10.17;80.36
9225;BME280;4647;48.072;11.616;2023-12-04T05:50:30;95088.13;;;-10.17;80.10
9225;BME280;4647;48.072;11.616;2023-12-04T05:52:58;95094.56;;;-10.09;80.04
9225;BME280;4647;48.072;11.616;2023-12-04T05:55:27;95093.78;;;-10.10;80.38
9225;BME280;4647;48.072;11.616;2023-12-04T05:57:55;95053.31;;;-10.36;80.73
9225;BME280;4647;48.072;11.616;2023-12-04T06:00:24;95083.59;;;-10.11;80.75
9225;BME280;4647;48.072;11.616;2023-12-04T06:02:52;95082.72;;;-10.07;81.10
9225;BME280;4647;48.072;11.616;2023-12-04T06:05:21;95085.63;;;-9.89;80.60
9225;BME280;4647;48.072;11.616;2023-12-04T06:07:52;95085.34;;;-9.88;80.70
9225;BME280;4647;48.072;11.616;2023-12-04T06:10:20;95075.16;;;-9.89;80.46
9225;BME280;4647;48.072;11.616;2023-12-04T06:12:46;95073.03;;;-9.74;80.26
9225;BME280;4647;48.072;11.616;2023-12-04T06:15:14;95063.34;;;-9.73;80.30
9225;BME280;4647;48.072;11.616;2023-12-04T06:17:43;95068.56;;;-9.87;80.89
9225;BME280;4647;48.072;11.616;2023-12-04T06:20:11;95064.69;;;-9.76;80.90
9225;BME280;4647;48.072;11.616;2023-12-04T06:22:40;95052.28;;;-9.70;80.61
9225;BME280;4647;48.072;11.616;2023-12-04T06:25:13;95075.25;;;-9.62;80.63
9225;BME280;4647;48.072;11.616;2023-12-04T06:27:43;95069.69;;;-9.61;80.75
9225;BME280;4647;48.072;11.616;2023-12-04T06:30:12;95068.25;;;-9.53;80.71
9225;BME280;4647;48.072;11.616;2023-12-04T06:32:41;95065.72;;;-9.58;80.78
9225;BME280;4647;48.072;11.616;2023-12-04T06:35:11;95040.19;;;-9.66;80.98
9225;BME280;4647;48.072;11.616;2023-12-04T06:37:40;95054.75;;;-9.60;81.32
9225;BME280;4647;48.072;11.616;2023-12-04T06:40:12;95048.03;;;-9.66;81.87
9225;BME280;4647;48.072;11.616;2023-12-04T06:42:41;95047.19;;;-9.48;81.69
9225;BME280;4647;48.072;11.616;2023-12-04T06:45:11;95027.13;;;-9.39;81.17
9225;BME280;4647;48.072;11.616;2023-12-04T06:47:40;95031.59;;;-9.39;81.14
9225;BME280;4647;48.072;11.616;2023-12-04T06:50:11;95039.00;;;-9.14;80.76
9225;BME280;4647;48.072;11.616;2023-12-04T06:52:39;95031.81;;;-9.22;80.79
9225;BME280;4647;48.072;11.616;2023-12-04T06:55:08;95033.75;;;-9.14;80.87
9225;BME280;4647;48.072;11.616;2023-12-04T06:57:39;95040.53;;;-9.13;80.58
9225;BME280;4647;48.072;11.616;2023-12-04T07:00:09;95037.63;;;-9.11;81.06
9225;BME280;4647;48.072;11.616;2023-12-04T07:02:39;95033.25;;;-9.16;81.79
9225;BME280;4647;48.072;11.616;2023-12-04T07:05:08;95023.63;;;-9.07;81.57
9225;BME280;4647;48.072;11.616;2023-12-04T07:07:37;95029.97;;;-8.94;81.42
9225;BME280;4647;48.072;11.616;2023-12-04T07:10:06;95024.50;;;-8.70;80.73
9225;BME280;4647;48.072;11.616;2023-12-04T07:12:34;95022.84;;;-8.66;80.38
9225;BME280;4647;48.072;11.616;2023-12-04T07:15:06;95020.03;;;-8.70;80.92
9225;BME280;4647;48.072;11.616;2023-12-04T07:17:35;95010.94;;;-8.50;80.66
9225;BME280;4647;48.072;11.616;2023-12-04T07:20:05;95011.97;;;-8.37;80.68
9225;BME280;4647;48.072;11.616;2023-12-04T07:22:34;95012.38;;;-8.44;80.40
9225;BME280;4647;48.072;11.616;2023-12-04T07:25:03;95015.97;;;-8.17;80.45
9225;BME280;4647;48.072;11.616;2023-12-04T07:27:32;95009.41;;;-8.06;80.31
9225;BME280;4647;48.072;11.616;2023-12-04T07:30:01;95003.16;;;-8.32;80.04
9225;BME280;4647;48.072;11.616;2023-12-04T07:32:33;94998.38;;;-8.39;81.10
9225;BME280;4647;48.072;11.616;2023-12-04T07:35:01;94984.41;;;-8.03;80.88
9225;BME280;4647;48.072;11.616;2023-12-04T07:37:29;94984.16;;;-7.93;80.54
9225;BME280;4647;48.072;11.616;2023-12-04T07:39:58;94984.09;;;-7.80;80.15
9225;BME280;4647;48.072;11.616;2023-12-04T07:42:27;94977.56;;;-7.82;80.11
9225;BME280;4647;48.072;11.616;2023-12-04T07:44:55;94964.84;;;-8.11;79.80
9225;BME280;4647;48.072;11.616;2023-12-04T07:47:24;94971.78;;;-8.15;79.70
9225;BME280;4647;48.072;11.616;2023-12-04T07:49:55;94978.59;;;-7.92;79.71
9225;BME280;4647;48.072;11.616;2023-12-04T07:52:25;94978.41;;;-7.73;81.16
9225;BME280;4647;48.072;11.616;2023-12-04T07:54:54;94962.22;;;-7.58;82.06
9225;BME280;4647;48.072;11.616;2023-12-04T07:57:22;94971.75;;;-7.39;80.18
9225;BME280;4647;48.072;11.616;2023-12-04T07:59:51;94966.94;;;-7.46;78.75
9225;BME280;4647;48.072;11.616;2023-12-04T08:02:19;94971.56;;;-7.52;79.14
9225;BME280;4647;48.072;11.616;2023-12-04T08:04:47;94975.91;;;-7.38;78.91
9225;BME280;4647;48.072;11.616;2023-12-04T08:07:18;94982.56;;;-7.41;79.48
9225;BME280;4647;48.072;11.616;2023-12-04T08:09:47;94990.53;;;-6.84;80.85
9225;BME280;4647;48.072;11.616;2023-12-04T08:12:16;94987.16;;;-7.16;77.94
9225;BME280;4647;48.072;11.616;2023-12-04T08:14:44;94998.97;;;-7.44;80.13
9225;BME280;4647;48.072;11.616;2023-12-04T08:17:12;94998.16;;;-7.14;79.43
9225;BME280;4647;48.072;11.616;2023-12-04T08:19:41;94989.13;;;-6.82;80.08
9225;BME280;4647;48.072;11.616;2023-12-04T08:22:09;94989.66;;;-6.62;81.62
9225;BME280;4647;48.072;11.616;2023-12-04T08:24:40;94975.56;;;-6.32;81.05
9225;BME280;4647;48.072;11.616;2023-12-04T08:27:09;94976.66;;;-6.24;80.43
9225;BME280;4647;48.072;11.616;2023-12-04T08:29:39;94961.91;;;-6.51;78.80
9225;BME280;4647;48.072;11.616;2023-12-04T08:32:07;94961.13;;;-6.43;79.05
9225;BME280;4647;48.072;11.616;2023-12-04T08:34:36;94954.31;;;-6.01;81.22
9225;BME280;4647;48.072;11.616;2023-12-04T08:37:05;94952.63;;;-6.23;79.56
9225;BME280;4647;48.072;11.616;2023-12-04T08:39:33;94954.47;;;-6.49;80.59
9225;BME280;4647;48.072;11.616;2023-12-04T08:42:04;94967.81;;;-6.37;80.55
9225;BME280;4647;48.072;11.616;2023-12-04T08:44:34;94960.06;;;-6.07;80.52
9225;BME280;4647;48.072;11.616;2023-12-04T08:47:03;94971.00;;;-5.79;79.65
9225;BME280;4647;48.072;11.616;2023-12-04T08:49:32;94950.28;;;-6.41;77.62
9225;BME280;4647;48.072;11.616;2023-12-04T08:52:00;94962.09;;;-6.30;79.26
9225;BME280;4647;48.072;11.616;2023-12-04T08:54:29;94952.78;;;-6.54;79.04
9225;BME280;4647;48.072;11.616;2023-12-04T08:56:57;94958.66;;;-6.39;79.22
9225;BME280;4647;48.072;11.616;2023-12-04T08:59:28;94959.91;;;-6.11;78.29
9225;BME280;4647;48.072;11.616;2023-12-04T09:01:57;94962.16;;;-5.75;80.45
9225;BME280;4647;48.072;11.616;2023-12-04T09:04:29;94958.53;;;-5.53;78.00
9225;BME280;4647;48.072;11.616;2023-12-04T09:06:57;94961.66;;;-5.68;77.64
9225;BME280;4647;48.072;11.616;2023-12-04T09:09:25;94934.44;;;-5.43;81.05
9225;BME280;4647;48.072;11.616;2023-12-04T09:11:54;94955.78;;;-4.89;79.07
9225;BME280;4647;48.072;11.616;2023-12-04T09:14:22;94954.59;;;-5.00;76.95
9225;BME280;4647;48.072;11.616;2023-12-04T09:16:55;94950.25;;;-4.75;78.66
9225;BME280;4647;48.072;11.616;2023-12-04T09:19:24;94951.84;;;-4.33;78.27
9225;BME280;4647;48.072;11.616;2023-12-04T09:21:53;94951.19;;;-4.29;81.01
9225;BME280;4647;48.072;11.616;2023-12-04T09:24:22;94943.47;;;-4.14;79.97
9225;BME280;4647;48.072;11.616;2023-12-04T09:26:51;94940.63;;;-4.71;79.08
9225;BME280;4647;48.072;11.616;2023-12-04T09:29:20;94949.91;;;-4.23;79.86
9225;BME280;4647;48.072;11.616;2023-12-04T09:31:50;94950.94;;;-3.95;78.30
9225;BME280;4647;48.072;11.616;2023-12-04T09:34:21;94952.56;;;-4.23;76.69
9225;BME280;4647;48.072;11.616;2023-12-04T09:36:50;94959.56;;;-4.27;76.98
9225;BME280;4647;48.072;11.616;2023-12-04T09:39:19;94959.53;;;-4.19;76.57
9225;BME280;4647;48.072;11.616;2023-12-04T09:41:48;94959.38;;;-4.64;75.06
9225;BME280;4647;48.072;11.616;2023-12-04T09:44:17;94965.72;;;-4.15;77.57
9225;BME280;4647;48.072;11.616;2023-12-04T09:46:46;94972.22;;;-4.33;76.75
9225;BME280;4647;48.072;11.616;2023-12-04T09:49:15;94964.47;;;-3.96;78.65
9225;BME280;4647;48.072;11.616;2023-12-04T09:51:47;94959.75;;;-3.58;77.96
9225;BME280;4647;48.072;11.616;2023-12-04T09:54:17;94959.06;;;-3.22;78.03
9225;BME280;4647;48.072;11.616;2023-12-04T09:56:46;94952.25;;;-3.56;78.04
9225;BME280;4647;48.072;11.616;2023-12-04T09:59:16;94950.25;;;-3.01;74.89
9225;BME280;4647;48.072;11.616;2023-12-04T10:01:46;94946.94;;;-3.56;76.15
9225;BME280;4647;48.072;11.616;2023-12-04T10:04:15;94936.78;;;-3.66;77.11
9225;BME280;4647;48.072;11.616;2023-12-04T10:06:43;94923.28;;;-3.28;79.69
9225;BME280;4647;48.072;11.616;2023-12-04T10:09:16;94923.19;;;-3.19;79.15
9225;BME280;4647;48.072;11.616;2023-12-04T10:11:45;94931.03;;;-3.23;75.43
9225;BME280;4647;48.072;11.616;2023-12-04T10:14:15;94930.00;;;-3.43;74.55
9225;BME280;4647;48.072;11.616;2023-12-04T10:16:44;94915.31;;;-3.40;75.68
9225;BME280;4647;48.072;11.616;2023-12-04T10:19:18;94917.31;;;-3.37;76.74
9225;BME280;4647;48.072;11.616;2023-12-04T10:21:48;94918.69;;;-3.76;76.32
9225;BME280;4647;48.072;11.616;2023-12-04T10:24:33;94892.25;;;-2.91;76.20
9225;BME280;4647;48.072;11.616;2023-12-04T10:27:03;94904.09;;;-2.36;77.96
9225;BME280;4647;48.072;11.616;2023-12-04T10:29:41;94898.50;;;-2.19;72.04
9225;BME280;4647;48.072;11.616;2023-12-04T10:32:11;94885.97;;;-2.06;74.90
9225;BME280;4647;48.072;11.616;2023-12-04T10:34:41;94885.97;;;-2.06;74.90
9225;BME280;4647;48.072;11.616;2023-12-04T10:37:11;94863.25;;;-1.75;67.74
9225;BME280;4647;48.072;11.616;2023-12-04T10:39:49;94880.66;;;-1.62;68.46
9225;BME280;4647;48.072;11.616;2023-12-04T10:42:24;94882.19;;;-2.73;71.08
9225;BME280;4647;48.072;11.616;2023-12-04T10:44:55;94878.72;;;-2.61;73.70
9225;BME280;4647;48.072;11.616;2023-12-04T10:47:24;94873.66;;;-2.26;70.80
9225;BME280;4647;48.072;11.616;2023-12-04T10:49:52;94873.84;;;-2.47;73.28
9225;BME280;4647;48.072;11.616;2023-12-04T10:52:22;94879.50;;;-2.61;71.53
9225;BME280;4647;48.072;11.616;2023-12-04T10:54:53;94870.41;;;-3.12;75.07
9225;BME280;4647;48.072;11.616;2023-12-04T10:57:26;94860.91;;;-2.49;72.86
9225;BME280;4647;48.072;11.616;2023-12-04T10:59:57;94863.97;;;-2.34;74.27
9225;BME280;4647;48.072;11.616;2023-12-04T11:02:26;94859.22;;;-2.13;71.15
9225;BME280;4647;48.072;11.616;2023-12-04T11:04:58;94856.69;;;-2.90;73.67
9225;BME280;4647;48.072;11.616;2023-12-04T11:07:30;94854.03;;;-2.90;73.51
9225;BME280;4647;48.072;11.616;2023-12-04T11:10:03;94857.63;;;-2.58;72.91
9225;BME280;4647;48.072;11.616;2023-12-04T11:12:34;94844.50;;;-2.38;74.42
9225;BME280;4647;48.072;11.616;2023-12-04T11:15:05;94846.66;;;-3.09;75.15
9225;BME280;4647;48.072;11.616;2023-12-04T11:17:37;94836.50;;;-2.94;74.25
9225;BME280;4647;48.072;11.616;2023-12-04T11:20:11;94835.53;;;-2.62;74.13
9225;BME280;4647;48.072;11.616;2023-12-04T11:22:42;94833.72;;;-2.45;73.88
9225;BME280;4647;48.072;11.616;2023-12-04T11:25:14;94823.69;;;-1.80;73.93
9225;BME280;4647;48.072;11.616;2023-12-04T11:27:43;94813.06;;;-1.65;71.13
9225;BME280;4647;48.072;11.616;2023-12-04T11:30:12;94809.44;;;-2.04;70.69
9225;BME280;4647;48.072;11.616;2023-12-04T11:32:45;94794.53;;;-2.08;71.41
9225;BME280;4647;48.072;11.616;2023-12-04T11:35:14;94788.09;;;-2.79;71.20
9225;BME280;4647;48.072;11.616;2023-12-04T11:37:44;94790.94;;;-3.12;73.41
9225;BME280;4647;48.072;11.616;2023-12-04T11:40:16;94796.91;;;-3.15;73.74
9225;BME280;4647;48.072;11.616;2023-12-04T11:42:44;94780.16;;;-3.80;74.32
9225;BME280;4647;48.072;11.616;2023-12-04T11:45:18;94773.78;;;-3.55;75.69
9225;BME280;4647;48.072;11.616;2023-12-04T11:47:51;94774.66;;;-3.63;73.27
9225;BME280;4647;48.072;11.616;2023-12-04T11:50:21;94773.44;;;-3.41;74.37
9225;BME280;4647;48.072;11.616;2023-12-04T11:52:50;94776.31;;;-3.46;74.11
9225;BME280;4647;48.072;11.616;2023-12-04T11:55:22;94775.94;;;-3.32;74.39
9225;BME280;4647;48.072;11.616;2023-12-04T11:57:53;94752.25;;;-3.29;74.92
9225;BME280;4647;48.072;11.616;2023-12-04T12:00:23;94770.00;;;-3.29;75.19
9225;BME280;4647;48.072;11.616;2023-12-04T12:03:02;94779.41;;;-2.64;73.55
9225;BME280;4647;48.072;11.616;2023-12-04T12:05:32;94788.28;;;-2.44;72.25
9225;BME280;4647;48.072;11.616;2023-12-04T12:08:02;94796.97;;;-2.31;72.74
9225;BME280;4647;48.072;11.616;2023-12-04T12:10:34;94797.59;;;-2.22;72.83
9225;BME280;4647;48.072;11.616;2023-12-04T12:13:02;94796.63;;;-1.86;71.37
9225;BME280;4647;48.072;11.616;2023-12-04T12:15:32;94770.13;;;-2.14;71.34
9225;BME280;4647;48.072;11.616;2023-12-04T12:18:00;94787.09;;;-1.71;70.31
9225;BME280;4647;48.072;11.616;2023-12-04T12:20:30;94787.78;;;-1.74;70.63
9225;BME280;4647;48.072;11.616;2023-12-04T12:22:58;94772.63;;;-1.58;69.77
9225;BME280;4647;48.072;11.616;2023-12-04T12:25:26;94784.25;;;-1.47;71.12
9225;BME280;4647;48.072;11.616;2023-12-04T12:28:02;94780.25;;;-1.41;69.38
9225;BME280;4647;48.072;11.616;2023-12-04T12:30:30;94769.34;;;-1.36;69.85
9225;BME280;4647;48.072;11.616;2023-12-04T12:32:59;94786.00;;;-1.19;69.59
9225;BME280;4647;48.072;11.616;2023-12-04T12:35:27;94786.22;;;-1.44;70.79
9225;BME280;4647;48.072;11.616;2023-12-04T12:37:56;94777.97;;;-1.23;71.79
9225;BME280;4647;48.072;11.616;2023-12-04T12:40:27;94765.22;;;-1.33;71.28
9225;BME280;4647;48.072;11.616;2023-12-04T12:43:05;94771.88;;;-1.24;71.42
9225;BME280;4647;48.072;11.616;2023-12-04T12:45:40;94775.09;;;-1.49;71.84
9225;BME280;4647;48.072;11.616;2023-12-04T12:48:13;94755.38;;;-1.33;71.58
9225;BME280;4647;48.072;11.616;2023-12-04T12:50:41;94773.69;;;-0.93;70.98
9225;BME280;4647;48.072;11.616;2023-12-04T12:53:10;94775.59;;;-0.93;71.42
9225;BME280;4647;48.072;11.616;2023-12-04T12:55:40;94772.94;;;-0.54;69.63
9225;BME280;4647;48.072;11.616;2023-12-04T12:58:11;94766.88;;;-0.13;68.79
9225;BME280;4647;48.072;11.616;2023-12-04T13:00:41;94774.41;;;-0.38;68.13
9225;BME280;4647;48.072;11.616;2023-12-04T13:03:14;94767.66;;;-1.09;71.23
9225;BME280;4647;48.072;11.616;2023-12-04T13:05:43;94770.06;;;-1.70;73.84
9225;BME280;4647;48.072;11.616;2023-12-04T13:08:12;94762.22;;;-0.58;70.75
9225;BME280;4647;48.072;11.616;2023-12-04T13:10:41;94758.97;;;-0.28;68.78
9225;BME280;4647;48.072;11.616;2023-12-04T13:13:13;94742.19;;;-0.52;68.64
9225;BME280;4647;48.072;11.616;2023-12-04T13:15:39;94725.44;;;-0.95;70.29
9225;BME280;4647;48.072;11.616;2023-12-04T13:18:08;94728.91;;;-0.90;70.95
9225;BME280;4647;48.072;11.616;2023-12-04T13:20:36;94711.91;;;-1.05;70.38